Time;durP1;ratioP1;P1;durP2;ratioP2;P2;SDS_P1;SDS_P2;PMS_P1;PMS_P2;Temp;Humidity;BMP_temperature;BMP_pressure;BME280_temperature;BME280_humidity;BME280_pressure;Samples;Min_cycle;Max_cycle;Signal;HPM_P1;HPM_P2
2023/09/16 00:00:14;;;;;;;5.20;4.70;;;;;;;20.37;71.13;93855.19;526279;28;908;-41
2023/09/16 00:00:33;;;;;;;5.23;4.73;;;;;;;20.46;71.05;93868.41;528207;28;862;-41
2023/09/16 00:00:48;;;;;;;5.30;4.80;;;;;;;20.45;71.09;93880.22;528296;28;884;-40
2023/09/16 00:01:04;;;;;;;5.57;4.53;;;;;;;20.45;71.03;93877.41;528214;28;805;-40
2023/09/16 00:01:19;;;;;;;5.18;4.32;;;;;;;20.41;71.07;93872.28;528239;28;867;-41
2023/09/16 00:01:34;;;;;;;5.90;4.05;;;;;;;20.39;71.18;93870.09;528310;28;1200;-41
2023/09/16 00:01:50;;;;;;;5.90;4.40;;;;;;;20.39;71.33;93872.16;528282;28;843;-41
2023/09/16 00:02:05;;;;;;;5.25;4.60;;;;;;;20.37;71.33;93880.44;528210;28;984;-40
2023/09/16 00:02:20;;;;;;;6.23;5.00;;;;;;;20.35;71.49;93877.50;527526;28;1314;-40
2023/09/16 00:02:36;;;;;;;5.93;4.93;;;;;;;20.33;71.48;93874.56;528406;28;1055;-40
2023/09/16 00:02:51;;;;;;;4.90;4.38;;;;;;;20.32;71.53;93876.63;528161;28;1105;-40
2023/09/16 00:03:07;;;;;;;4.93;4.37;;;;;;;20.32;71.59;93870.28;528246;28;865;-41
2023/09/16 00:03:22;;;;;;;5.23;4.73;;;;;;;20.31;71.65;93874.44;528251;28;859;-40
2023/09/16 00:03:38;;;;;;;5.32;4.82;;;;;;;20.30;71.66;93870.91;528088;28;1717;-41
2023/09/16 00:03:53;;;;;;;5.20;4.70;;;;;;;20.30;71.79;93879.31;528357;28;817;-41
2023/09/16 00:04:09;;;;;;;4.82;4.38;;;;;;;20.29;71.80;93877.84;526310;28;966;-41
2023/09/16 00:04:25;;;;;;;4.78;4.28;;;;;;;20.29;71.75;93880.63;527577;28;1381;-41
2023/09/16 00:04:40;;;;;;;5.40;4.57;;;;;;;20.30;71.76;93875.78;528245;28;972;-40
2023/09/16 00:04:55;;;;;;;5.90;4.60;;;;;;;20.29;71.92;93877.13;528320;28;880;-40
2023/09/16 00:05:12;;;;;;;5.45;4.53;;;;;;;20.28;71.86;93879.19;528224;28;870;-40
2023/09/16 00:05:27;;;;;;;5.00;4.50;;;;;;;20.26;71.82;93879.06;527998;28;921;-41
2023/09/16 00:05:43;;;;;;;4.75;4.35;;;;;;;20.27;71.91;93877.00;526551;28;875;-41
2023/09/16 00:05:59;;;;;;;5.10;4.63;;;;;;;20.27;71.88;93882.59;527252;28;939;-41
2023/09/16 00:06:14;;;;;;;5.63;5.03;;;;;;;20.27;71.91;93883.31;528083;28;1209;-41
2023/09/16 00:06:29;;;;;;;5.47;4.97;;;;;;;20.25;72.13;93879.63;526396;28;809;-41
2023/09/16 00:06:46;;;;;;;5.22;4.72;;;;;;;20.26;72.01;93881.13;526241;28;836;-41
2023/09/16 00:07:02;;;;;;;6.90;4.57;;;;;;;20.26;72.04;93881.13;527272;28;1048;-41
2023/09/16 00:07:18;;;;;;;6.70;4.50;;;;;;;20.24;72.00;93881.72;527788;28;939;-41
2023/09/16 00:07:34;;;;;;;6.28;4.60;;;;;;;20.24;72.08;93886.59;527960;28;833;-41
2023/09/16 00:07:49;;;;;;;5.95;4.80;;;;;;;20.23;72.06;93880.25;528303;28;927;-41
2023/09/16 00:08:05;;;;;;;5.53;4.47;;;;;;;20.23;72.02;93883.06;528297;27;848;-41
2023/09/16 00:08:21;;;;;;;5.10;4.15;;;;;;;20.22;72.18;93884.41;528175;28;868;-41
2023/09/16 00:08:36;;;;;;;5.38;4.40;;;;;;;20.21;72.18;93876.56;528396;28;805;-41
2023/09/16 00:08:51;;;;;;;4.97;4.33;;;;;;;20.21;72.41;93879.38;528119;28;836;-41
2023/09/16 00:09:07;;;;;;;5.17;4.67;;;;;;;20.19;72.34;93882.03;526175;28;843;-41
2023/09/16 00:09:23;;;;;;;5.53;4.88;;;;;;;20.18;72.29;93880.56;527931;28;844;-41
2023/09/16 00:09:40;;;;;;;5.00;4.50;;;;;;;20.16;72.45;93877.63;528282;27;892;-41
2023/09/16 00:09:58;;;;;;;4.72;4.32;;;;;;;20.16;72.35;93883.25;528348;28;931;-41
2023/09/16 00:10:14;;;;;;;4.95;4.55;;;;;;;20.15;72.47;93887.38;528233;28;899;-41
2023/09/16 00:10:29;;;;;;;5.43;4.90;;;;;;;20.14;72.53;93885.91;528226;28;1262;-41
2023/09/16 00:10:45;;;;;;;6.18;4.95;;;;;;;20.15;72.70;93881.78;528381;28;841;-41
2023/09/16 00:11:01;;;;;;;5.15;4.65;;;;;;;20.02;72.74;93862.69;527729;28;1694;-40
2023/09/16 00:11:16;;;;;;;5.10;4.60;;;;;;;20.15;72.88;93888.13;526651;28;1090;-41
2023/09/16 00:11:32;;;;;;;5.00;4.40;;;;;;;20.16;72.94;93888.84;527947;28;1146;-40
2023/09/16 00:11:47;;;;;;;5.03;4.53;;;;;;;20.16;73.02;93891.66;526245;28;832;-41
2023/09/16 00:12:03;;;;;;;5.77;5.17;;;;;;;20.16;73.05;93889.56;526133;28;911;-41
2023/09/16 00:12:18;;;;;;;6.03;5.03;;;;;;;20.17;73.09;93890.31;526443;28;868;-41
2023/09/16 00:12:33;;;;;;;5.63;4.63;;;;;;;20.16;73.02;93891.66;528198;28;1089;-41
2023/09/16 00:12:49;;;;;;;5.07;4.60;;;;;;;20.13;73.05;93887.97;528349;28;841;-41
2023/09/16 00:13:04;;;;;;;5.77;5.10;;;;;;;20.15;73.18;93890.19;528280;28;852;-41
2023/09/16 00:13:20;;;;;;;6.82;5.22;;;;;;;20.17;73.16;93893.13;525961;28;951;-41
2023/09/16 00:13:36;;;;;;;5.63;5.00;;;;;;;20.17;73.17;93891.06;527245;28;856;-41
2023/09/16 00:13:51;;;;;;;5.55;4.63;;;;;;;20.18;73.36;93894.59;526451;28;1357;-41
2023/09/16 00:14:06;;;;;;;7.27;4.63;;;;;;;20.18;73.46;93897.41;527127;28;1222;-41
2023/09/16 00:14:24;;;;;;;7.43;5.22;;;;;;;20.18;73.60;93897.41;528070;28;864;-41
2023/09/16 00:14:39;;;;;;;7.25;5.50;;;;;;;20.16;73.58;93894.47;526467;28;868;-41
2023/09/16 00:14:55;;;;;;;6.27;5.37;;;;;;;20.14;73.80;93897.84;525972;28;853;-40
2023/09/16 00:15:10;;;;;;;5.60;5.10;;;;;;;20.13;73.78;93892.84;525989;28;774;-41
2023/09/16 00:15:27;;;;;;;6.33;5.03;;;;;;;20.11;73.85;93889.91;527826;28;829;-41
2023/09/16 00:15:48;;;;;;;5.30;4.47;;;;;;;20.08;74.04;93899.50;528080;28;1069;-41
2023/09/16 00:16:04;;;;;;;4.45;4.05;;;;;;;20.05;74.06;93895.13;528234;28;928;-41
2023/09/16 00:16:20;;;;;;;5.78;4.90;;;;;;;20.02;74.19;93901.94;527712;28;1582;-41
2023/09/16 00:16:35;;;;;;;5.82;4.90;;;;;;;20.01;74.26;93897.66;527523;28;891;-41
2023/09/16 00:16:52;;;;;;;7.40;4.43;;;;;;;19.88;74.42;93876.50;526702;28;1684;-41
2023/09/16 00:17:10;;;;;;;7.47;4.72;;;;;;;19.98;74.50;93899.59;528225;28;1151;-41
2023/09/16 00:17:25;;;;;;;6.40;5.05;;;;;;;19.97;74.60;93898.13;528254;28;890;-41
2023/09/16 00:17:41;;;;;;;7.70;5.05;;;;;;;19.97;74.56;93895.31;528325;28;789;-41
2023/09/16 00:17:56;;;;;;;7.20;4.93;;;;;;;19.97;74.54;93895.31;528333;28;959;-41
2023/09/16 00:18:11;;;;;;;7.33;4.90;;;;;;;19.95;74.53;93892.38;528125;27;908;-40
2023/09/16 00:18:27;;;;;;;7.05;4.80;;;;;;;19.90;74.54;93887.13;528194;28;1227;-41
2023/09/16 00:18:42;;;;;;;5.63;4.60;;;;;;;19.92;74.56;93899.19;527298;28;1328;-40
2023/09/16 00:18:58;;;;;;;5.88;4.82;;;;;;;19.93;74.59;93894.31;527646;28;1978;-40
2023/09/16 00:19:13;;;;;;;6.40;5.17;;;;;;;19.91;74.83;93894.91;526079;28;884;-40
2023/09/16 00:19:28;;;;;;;6.03;5.00;;;;;;;19.90;74.89;93895.53;526345;28;873;-40
2023/09/16 00:19:44;;;;;;;5.70;4.87;;;;;;;19.90;74.78;93889.91;526169;28;864;-40
2023/09/16 00:19:59;;;;;;;5.50;4.60;;;;;;;19.90;74.94;93892.72;526208;28;896;-40
2023/09/16 00:20:15;;;;;;;5.18;4.55;;;;;;;19.90;75.08;93893.47;528242;28;879;-40
2023/09/16 00:20:30;;;;;;;5.73;5.13;;;;;;;19.89;74.90;93894.78;528192;28;1231;-40
2023/09/16 00:20:49;;;;;;;5.60;5.07;;;;;;;19.89;74.96;93894.03;528275;28;857;-40
2023/09/16 00:21:05;;;;;;;5.15;4.65;;;;;;;19.89;75.00;93894.03;528272;28;863;-40
2023/09/16 00:21:20;;;;;;;5.55;4.97;;;;;;;19.89;74.99;93896.84;528103;28;949;-40
2023/09/16 00:21:35;;;;;;;6.23;5.17;;;;;;;19.88;74.98;93887.69;528234;28;1072;-40
2023/09/16 00:21:51;;;;;;;7.47;5.05;;;;;;;19.88;74.94;93893.31;528266;28;932;-40
2023/09/16 00:22:10;;;;;;;6.82;4.47;;;;;;;19.89;74.79;93888.44;528253;28;899;-40
2023/09/16 00:22:26;;;;;;;5.07;4.35;;;;;;;19.88;74.63;93882.09;526994;28;1133;-40
2023/09/16 00:22:42;;;;;;;5.10;4.60;;;;;;;19.89;74.64;93885.63;528257;28;940;-40
2023/09/16 00:22:58;;;;;;;5.90;5.15;;;;;;;19.89;74.72;93886.38;528068;28;1015;-40
2023/09/16 00:23:14;;;;;;;6.65;5.50;;;;;;;19.90;74.73;93889.91;528082;28;1125;-40
2023/09/16 00:23:31;;;;;;;7.03;5.60;;;;;;;19.89;74.77;93880.03;527321;28;1673;-40
2023/09/16 00:23:46;;;;;;;6.68;5.22;;;;;;;19.89;74.74;93891.25;527362;28;833;-40
2023/09/16 00:24:02;;;;;;;6.33;4.67;;;;;;;19.89;74.76;93886.38;526035;28;1292;-40
2023/09/16 00:24:18;;;;;;;6.83;4.80;;;;;;;19.89;74.79;93883.56;526750;28;881;-40
2023/09/16 00:24:33;;;;;;;5.50;4.70;;;;;;;19.89;74.73;93888.44;527569;28;1141;-40
2023/09/16 00:24:48;;;;;;;5.37;4.83;;;;;;;19.89;74.65;93888.44;528286;28;1079;-40
2023/09/16 00:25:04;;;;;;;5.73;5.17;;;;;;;19.88;74.70;93887.69;528232;28;892;-40
2023/09/16 00:25:20;;;;;;;5.45;4.80;;;;;;;19.89;74.77;93891.25;527833;28;818;-40
2023/09/16 00:25:36;;;;;;;6.27;4.53;;;;;;;19.89;74.69;93889.19;527993;28;777;-40
2023/09/16 00:25:52;;;;;;;5.82;4.70;;;;;;;19.89;74.88;93894.03;526136;28;893;-40
2023/09/16 00:26:07;;;;;;;5.63;5.05;;;;;;;19.86;74.81;93878.44;527352;28;848;-40
2023/09/16 00:26:23;;;;;;;5.47;4.78;;;;;;;19.88;74.89;93887.00;527406;28;2107;-40
2023/09/16 00:26:39;;;;;;;5.43;4.60;;;;;;;19.83;74.89;93877.56;527367;28;808;-40
2023/09/16 00:26:54;;;;;;;6.97;4.70;;;;;;;19.89;75.06;93886.38;526115;28;892;-40
2023/09/16 00:27:10;;;;;;;6.78;4.68;;;;;;;19.89;75.02;93891.25;527538;28;1197;-40
2023/09/16 00:27:26;;;;;;;5.43;4.80;;;;;;;19.90;75.06;93889.91;526615;28;956;-40
2023/09/16 00:27:41;;;;;;;5.20;4.70;;;;;;;19.90;75.17;93884.31;527659;28;1263;-40
2023/09/16 00:27:57;;;;;;;5.53;4.60;;;;;;;19.90;75.22;93890.66;528124;28;1159;-40
2023/09/16 00:28:12;;;;;;;6.72;4.90;;;;;;;19.92;75.18;93884.44;528226;28;872;-40
2023/09/16 00:28:28;;;;;;;7.43;4.93;;;;;;;19.91;75.23;93886.50;527521;28;934;-40
2023/09/16 00:28:43;;;;;;;7.90;4.80;;;;;;;19.92;75.22;93890.06;526209;28;812;-40
2023/09/16 00:28:59;;;;;;;8.77;4.90;;;;;;;19.93;75.30;93888.72;526099;28;938;-40
2023/09/16 00:29:14;;;;;;;6.80;4.93;;;;;;;19.91;75.21;93882.97;526487;28;1178;-40
2023/09/16 00:29:29;;;;;;;5.70;4.93;;;;;;;19.93;75.17;93883.84;527240;28;1015;-40
2023/09/16 00:29:45;;;;;;;5.30;4.80;;;;;;;19.95;75.16;93880.44;526661;28;861;-40
2023/09/16 00:30:03;;;;;;;5.07;4.57;;;;;;;19.96;75.09;93890.31;528248;28;784;-40
2023/09/16 00:30:18;;;;;;;6.10;5.05;;;;;;;19.96;75.02;93887.50;528162;28;848;-40
2023/09/16 00:30:38;;;;;;;6.63;5.30;;;;;;;19.96;74.97;93885.44;527610;28;1315;-40
2023/09/16 00:30:54;;;;;;;5.97;4.93;;;;;;;19.97;74.97;93883.38;527276;28;1425;-40
2023/09/16 00:31:11;;;;;;;6.40;5.05;;;;;;;19.98;74.97;93887.66;528052;28;1416;-40
2023/09/16 00:31:27;;;;;;;5.72;5.13;;;;;;;19.99;74.86;93887.03;528276;28;880;-40
2023/09/16 00:31:42;;;;;;;5.15;4.68;;;;;;;20.00;74.88;93877.31;528189;28;910;-40
2023/09/16 00:31:58;;;;;;;6.10;4.63;;;;;;;19.98;74.92;93879.97;528390;28;859;-40
2023/09/16 00:32:13;;;;;;;5.90;4.63;;;;;;;20.03;74.78;93883.78;528289;28;836;-40
2023/09/16 00:32:29;;;;;;;4.93;4.43;;;;;;;20.04;74.94;93883.19;527842;28;898;-40
2023/09/16 00:32:44;;;;;;;6.00;4.80;;;;;;;20.05;74.80;93886.72;528070;28;1508;-40
2023/09/16 00:32:59;;;;;;;5.97;4.72;;;;;;;20.06;74.68;93882.56;528097;28;1448;-40
2023/09/16 00:33:15;;;;;;;6.30;4.80;;;;;;;20.07;74.59;93887.59;527935;28;1393;-40
2023/09/16 00:33:31;;;;;;;7.37;5.40;;;;;;;20.07;74.51;93884.78;527699;28;1653;-40
2023/09/16 00:33:49;;;;;;;5.90;4.90;;;;;;;20.09;74.35;93886.97;526176;28;836;-40
2023/09/16 00:34:04;;;;;;;5.45;4.82;;;;;;;20.09;74.31;93884.19;527068;28;828;-40
2023/09/16 00:34:19;;;;;;;5.60;5.03;;;;;;;20.09;74.28;93884.19;528155;28;900;-40
2023/09/16 00:34:35;;;;;;;6.03;4.82;;;;;;;20.08;74.22;93877.84;527799;28;1147;-40
2023/09/16 00:34:51;;;;;;;6.83;5.07;;;;;;;20.10;74.17;93891.25;528156;28;868;-40
2023/09/16 00:35:08;;;;;;;8.02;4.85;;;;;;;20.10;74.07;93885.63;528229;28;1077;-40
2023/09/16 00:35:23;;;;;;;6.72;4.72;;;;;;;20.11;74.11;93887.13;528251;28;825;-40
2023/09/16 00:35:38;;;;;;;5.27;4.77;;;;;;;20.11;74.01;93887.84;528350;28;813;-40
2023/09/16 00:35:54;;;;;;;5.72;5.00;;;;;;;20.10;73.93;93880.75;528240;28;1142;-40
2023/09/16 00:36:09;;;;;;;7.00;5.20;;;;;;;20.13;73.84;93890.03;528210;28;821;-40
2023/09/16 00:36:25;;;;;;;6.83;5.17;;;;;;;20.13;73.60;93892.84;526841;28;1633;-40
2023/09/16 00:36:40;;;;;;;5.75;4.80;;;;;;;20.08;73.82;93877.09;526065;28;1190;-40
2023/09/16 00:36:55;;;;;;;5.53;4.63;;;;;;;20.14;73.60;93891.53;526106;28;1329;-40
2023/09/16 00:37:12;;;;;;;5.30;4.53;;;;;;;20.15;73.57;93884.56;526169;28;847;-40
2023/09/16 00:37:27;;;;;;;5.13;4.57;;;;;;;20.15;73.45;93890.19;528095;28;972;-40
2023/09/16 00:37:43;;;;;;;7.00;5.10;;;;;;;20.14;73.42;93883.13;528263;28;1140;-40
2023/09/16 00:37:58;;;;;;;6.88;5.22;;;;;;;20.15;73.44;93887.38;528239;28;959;-40
2023/09/16 00:38:15;;;;;;;6.00;4.90;;;;;;;20.16;73.41;93883.25;528106;28;1180;-40
2023/09/16 00:38:31;;;;;;;6.22;4.90;;;;;;;20.08;73.71;93871.47;526139;28;975;-40
2023/09/16 00:38:46;;;;;;;6.13;4.90;;;;;;;20.18;73.42;93889.69;526050;28;1910;-40
2023/09/16 00:39:02;;;;;;;6.07;5.03;;;;;;;20.18;73.61;93886.91;526356;28;1764;-40
2023/09/16 00:39:17;;;;;;;7.03;4.90;;;;;;;20.19;73.58;93876.41;526829;28;797;-40
2023/09/16 00:39:33;;;;;;;6.80;4.53;;;;;;;20.20;73.62;93883.50;527747;28;1303;-40
2023/09/16 00:39:48;;;;;;;6.57;4.77;;;;;;;20.20;73.60;93884.28;528029;28;1404;-40
2023/09/16 00:40:06;;;;;;;5.78;4.90;;;;;;;20.20;73.50;93884.28;528311;28;801;-40
2023/09/16 00:40:22;;;;;;;5.72;5.05;;;;;;;20.22;73.50;93886.47;527660;28;1345;-40
2023/09/16 00:40:37;;;;;;;6.87;4.70;;;;;;;20.23;73.59;93882.31;528351;28;804;-40
2023/09/16 00:40:53;;;;;;;6.35;4.57;;;;;;;20.23;73.48;93874.66;528152;27;848;-40
2023/09/16 00:41:08;;;;;;;6.17;4.93;;;;;;;20.24;73.37;93881.00;528111;27;1093;-41
2023/09/16 00:41:23;;;;;;;6.17;4.90;;;;;;;20.23;73.57;93876.72;528258;28;872;-41
2023/09/16 00:41:40;;;;;;;5.47;4.72;;;;;;;20.26;73.46;93883.94;528306;28;1235;-41
2023/09/16 00:41:55;;;;;;;5.18;4.68;;;;;;;20.26;73.44;93878.31;528237;28;912;-41
2023/09/16 00:42:11;;;;;;;5.60;4.80;;;;;;;20.27;73.55;93886.13;528281;28;808;-41
2023/09/16 00:42:26;;;;;;;5.63;5.00;;;;;;;20.27;73.59;93882.59;527801;28;980;-41
2023/09/16 00:42:41;;;;;;;5.47;4.97;;;;;;;20.28;73.62;93872.84;528102;28;1053;-41
2023/09/16 00:42:57;;;;;;;5.15;4.65;;;;;;;20.27;73.67;93880.50;528267;28;781;-41
2023/09/16 00:43:12;;;;;;;6.10;4.80;;;;;;;20.28;73.66;93878.44;528269;28;836;-41
2023/09/16 00:43:28;;;;;;;6.60;5.20;;;;;;;20.21;73.51;93866.09;528083;28;953;-41
2023/09/16 00:43:43;;;;;;;5.55;5.00;;;;;;;20.29;73.32;93874.31;527011;28;947;-41
2023/09/16 00:43:58;;;;;;;7.60;5.00;;;;;;;20.30;73.37;93875.78;526114;28;812;-41
2023/09/16 00:44:14;;;;;;;8.27;5.22;;;;;;;20.26;73.35;93865.03;528026;28;969;-41
2023/09/16 00:44:29;;;;;;;6.73;5.10;;;;;;;20.30;73.33;93870.16;528273;28;828;-41
2023/09/16 00:44:46;;;;;;;7.17;4.93;;;;;;;20.30;73.32;93878.56;526456;28;800;-41
2023/09/16 00:45:01;;;;;;;6.15;4.88;;;;;;;20.31;73.26;93871.66;525995;28;967;-41
2023/09/16 00:45:16;;;;;;;5.90;5.20;;;;;;;20.31;73.37;93872.34;526682;28;794;-41
2023/09/16 00:45:33;;;;;;;5.70;5.10;;;;;;;20.32;73.30;93873.84;528083;28;1165;-41
2023/09/16 00:45:48;;;;;;;5.75;4.90;;;;;;;20.33;73.25;93875.31;528201;28;1247;-41
2023/09/16 00:46:04;;;;;;;6.93;5.20;;;;;;;20.33;73.18;93868.97;528206;28;860;-41
2023/09/16 00:46:19;;;;;;;7.17;4.83;;;;;;;20.33;73.28;93864.09;527646;28;1598;-41
2023/09/16 00:46:34;;;;;;;6.90;4.95;;;;;;;20.34;73.31;93873.22;526901;28;941;-41
2023/09/16 00:46:50;;;;;;;5.37;4.80;;;;;;;20.34;73.24;93870.41;526043;28;792;-41
2023/09/16 00:47:05;;;;;;;6.13;4.93;;;;;;;20.34;73.21;93859.94;526795;28;1140;-41
2023/09/16 00:47:20;;;;;;;6.65;5.25;;;;;;;20.35;73.34;93866.28;528085;28;946;-41
2023/09/16 00:47:37;;;;;;;5.47;4.97;;;;;;;20.37;73.37;93867.16;528283;28;899;-41
2023/09/16 00:47:52;;;;;;;5.60;5.10;;;;;;;20.33;73.39;93860.56;528302;28;825;-41
2023/09/16 00:48:09;;;;;;;5.53;4.93;;;;;;;20.33;73.42;93858.50;528314;28;968;-41
2023/09/16 00:48:25;;;;;;;6.43;4.85;;;;;;;20.38;73.53;93867.88;528022;28;1080;-41
2023/09/16 00:48:45;;;;;;;6.00;5.07;;;;;;;20.37;73.56;93864.34;527339;28;1002;-41
2023/09/16 00:49:00;;;;;;;5.93;5.32;;;;;;;20.38;73.46;93870.69;525663;28;1537;-41
2023/09/16 00:49:15;;;;;;;6.20;5.47;;;;;;;20.39;73.54;93869.34;523198;28;1163;-41
2023/09/16 00:49:31;;;;;;;6.05;5.45;;;;;;;20.39;73.47;93866.53;521521;28;1025;-41
2023/09/16 00:49:46;;;;;;;5.47;4.97;;;;;;;20.40;73.31;93868.00;519825;28;805;-41
2023/09/16 00:50:05;;;;;;;7.18;5.18;;;;;;;20.41;73.40;93861.06;519849;28;1391;-41
2023/09/16 00:50:21;;;;;;;8.43;5.43;;;;;;;20.41;73.38;93863.88;522102;28;997;-41
2023/09/16 00:50:36;;;;;;;5.93;4.77;;;;;;;20.42;73.17;93865.34;520548;28;1049;-41
2023/09/16 00:50:52;;;;;;;5.38;4.22;;;;;;;20.42;73.31;93863.25;521054;28;798;-41
2023/09/16 00:51:07;;;;;;;5.97;4.90;;;;;;;20.43;73.35;93861.19;521675;28;1064;-41
2023/09/16 00:51:23;;;;;;;7.60;5.33;;;;;;;20.43;73.47;93864.00;522112;28;944;-41
2023/09/16 00:51:41;;;;;;;7.40;5.28;;;;;;;20.43;73.56;93864.00;524709;28;1554;-41
2023/09/16 00:51:57;;;;;;;6.57;5.03;;;;;;;20.43;73.68;93861.19;523929;28;913;-41
2023/09/16 00:52:12;;;;;;;5.88;4.50;;;;;;;20.43;73.66;93861.19;523797;28;948;-41
2023/09/16 00:52:28;;;;;;;6.03;4.80;;;;;;;20.44;73.94;93868.28;525773;28;1089;-40
2023/09/16 00:52:55;;;;;;;6.13;5.07;;;;;;;20.44;74.04;93868.28;526654;28;1056;-41
2023/09/16 00:53:12;;;;;;;5.82;5.22;;;;;;;20.45;74.08;93866.94;528223;28;880;-41
2023/09/16 00:53:27;;;;;;;6.05;5.13;;;;;;;20.45;74.22;93869.75;527871;28;969;-41
2023/09/16 00:53:43;;;;;;;6.57;5.13;;;;;;;20.46;74.30;93871.22;528214;28;935;-40
2023/09/16 00:53:59;;;;;;;5.70;5.10;;;;;;;20.42;74.38;93865.34;526902;28;1038;-41
2023/09/16 00:54:14;;;;;;;5.18;4.68;;;;;;;20.46;74.21;93865.59;525864;28;860;-41
2023/09/16 00:54:30;;;;;;;5.60;4.93;;;;;;;20.47;74.28;93869.13;525796;28;1515;-41
2023/09/16 00:54:50;;;;;;;6.60;5.63;;;;;;;20.47;74.44;93866.31;523953;28;797;-41
2023/09/16 00:55:06;;;;;;;6.70;5.30;;;;;;;20.47;74.55;93864.25;521834;28;934;-41
2023/09/16 00:55:21;;;;;;;7.00;5.07;;;;;;;20.45;74.46;93863.38;520018;28;1425;-41
2023/09/16 00:55:38;;;;;;;8.40;5.75;;;;;;;20.48;74.56;93867.81;515946;28;916;-41
2023/09/16 00:55:53;;;;;;;9.48;5.55;;;;;;;20.34;74.48;93845.91;517876;28;1046;-41
2023/09/16 00:56:09;;;;;;;8.10;4.95;;;;;;;20.49;74.62;93864.38;520903;28;888;-41
2023/09/16 00:56:27;;;;;;;6.07;5.07;;;;;;;20.49;74.56;93864.38;521820;28;848;-41
2023/09/16 00:56:43;;;;;;;6.20;5.10;;;;;;;20.49;74.56;93861.56;523312;28;892;-41
2023/09/16 00:56:59;;;;;;;5.15;4.65;;;;;;;20.50;74.77;93862.31;522261;28;892;-41
2023/09/16 00:57:14;;;;;;;5.80;5.20;;;;;;;20.48;74.87;93853.78;524928;28;847;-40
2023/09/16 00:57:32;;;;;;;5.78;5.15;;;;;;;20.50;74.78;93867.94;526431;28;1258;-41
2023/09/16 00:57:48;;;;;;;5.30;4.80;;;;;;;20.51;74.74;93861.00;527986;28;1413;-41
2023/09/16 00:58:04;;;;;;;5.13;4.63;;;;;;;20.51;74.81;93858.19;526029;28;853;-41
2023/09/16 00:58:20;;;;;;;5.63;4.85;;;;;;;20.52;74.79;93860.38;523398;28;1436;-41
2023/09/16 00:58:36;;;;;;;5.82;5.20;;;;;;;20.53;74.81;93863.91;523881;28;781;-41
2023/09/16 00:58:51;;;;;;;6.00;5.38;;;;;;;20.52;74.86;93859.63;521569;28;1903;-41
2023/09/16 00:59:08;;;;;;;5.40;4.80;;;;;;;20.52;74.88;93860.38;520895;28;1030;-41
2023/09/16 00:59:25;;;;;;;4.90;4.45;;;;;;;20.52;74.83;93860.38;519204;28;1059;-40
2023/09/16 00:59:41;;;;;;;6.50;4.95;;;;;;;20.52;74.74;93865.25;519657;28;1697;-41
2023/09/16 00:59:57;;;;;;;6.60;5.20;;;;;;;20.52;74.65;93863.19;518156;28;889;-41
2023/09/16 01:00:13;;;;;;;5.22;4.65;;;;;;;20.48;74.56;93857.31;518989;28;1384;-41
2023/09/16 01:00:28;;;;;;;5.13;4.50;;;;;;;20.49;74.31;93858.78;519314;28;960;-41
2023/09/16 01:00:45;;;;;;;5.23;4.73;;;;;;;20.48;74.09;93862.19;520603;28;919;-41
2023/09/16 01:01:01;;;;;;;5.20;4.70;;;;;;;20.46;74.12;93853.66;522946;28;1083;-41
2023/09/16 01:01:17;;;;;;;5.82;4.97;;;;;;;20.42;74.01;93854.84;524581;28;1578;-41
2023/09/16 01:01:32;;;;;;;5.27;4.70;;;;;;;20.44;73.89;93850.72;525416;28;1073;-41
2023/09/16 01:01:51;;;;;;;4.68;4.25;;;;;;;20.43;73.81;93855.59;524643;28;817;-41
2023/09/16 01:02:08;;;;;;;5.28;4.78;;;;;;;20.41;73.84;93852.66;525891;28;1061;-41
2023/09/16 01:02:24;;;;;;;5.13;4.63;;;;;;;20.40;74.04;93851.16;523435;28;923;-41
2023/09/16 01:02:39;;;;;;;5.40;4.80;;;;;;;20.38;74.05;93853.84;523156;28;935;-40
2023/09/16 01:02:55;;;;;;;5.45;4.93;;;;;;;20.35;73.89;93849.47;523679;28;1156;-41
2023/09/16 01:03:11;;;;;;;6.28;4.90;;;;;;;20.31;73.77;93846.41;521801;28;830;-41
2023/09/16 01:03:27;;;;;;;6.90;5.13;;;;;;;20.32;73.71;93851.41;519915;28;1294;-41
2023/09/16 01:03:43;;;;;;;5.97;5.00;;;;;;;20.29;73.76;93849.78;520841;28;1423;-41
2023/09/16 01:03:58;;;;;;;5.37;4.77;;;;;;;20.28;73.89;93847.59;519654;28;825;-41
2023/09/16 01:04:14;;;;;;;5.07;4.57;;;;;;;20.26;74.01;93853.09;520379;28;1376;-41
2023/09/16 01:04:29;;;;;;;6.25;4.88;;;;;;;20.25;74.17;93851.59;520081;28;1586;-41
2023/09/16 01:04:45;;;;;;;7.00;5.10;;;;;;;20.23;74.44;93845.88;521835;28;857;-41
2023/09/16 01:05:04;;;;;;;5.63;5.03;;;;;;;20.06;74.67;93835.66;519931;28;904;-40
2023/09/16 01:05:20;;;;;;;4.88;4.47;;;;;;;20.21;74.65;93857.69;520386;28;1730;-41
2023/09/16 01:05:35;;;;;;;7.63;4.65;;;;;;;20.19;74.52;93846.31;522949;28;1298;-41
2023/09/16 01:05:51;;;;;;;8.57;5.03;;;;;;;20.18;74.45;93855.34;523891;28;809;-41
2023/09/16 01:06:07;;;;;;;5.85;4.78;;;;;;;20.16;74.41;93850.31;521744;28;1106;-41
2023/09/16 01:06:23;;;;;;;5.70;4.30;;;;;;;20.15;74.59;93853.72;521740;28;1074;-40
2023/09/16 01:06:40;;;;;;;5.53;4.47;;;;;;;20.13;74.72;93848.00;521779;28;880;-41
2023/09/16 01:06:55;;;;;;;5.25;4.75;;;;;;;20.10;74.75;93852.72;522982;28;889;-41
2023/09/16 01:07:11;;;;;;;5.67;4.73;;;;;;;20.10;74.70;93852.72;522554;28;877;-41
2023/09/16 01:07:27;;;;;;;6.17;4.93;;;;;;;20.04;74.88;93843.94;523570;28;1049;-41
2023/09/16 01:07:45;;;;;;;5.72;4.95;;;;;;;20.07;74.91;93850.41;523854;28;883;-41
2023/09/16 01:08:01;;;;;;;5.30;4.80;;;;;;;20.04;75.01;93854.41;525029;28;872;-41
2023/09/16 01:08:18;;;;;;;6.05;5.25;;;;;;;20.04;75.03;93851.59;525857;28;891;-41
2023/09/16 01:08:34;;;;;;;6.47;5.57;;;;;;;20.01;75.01;93853.53;525943;28;964;-41
2023/09/16 01:08:50;;;;;;;7.18;4.90;;;;;;;20.00;74.88;93848.53;525881;28;1092;-41
2023/09/16 01:09:05;;;;;;;6.53;4.53;;;;;;;19.97;74.96;93847.66;527094;28;1093;-41
2023/09/16 01:09:21;;;;;;;4.97;4.47;;;;;;;19.96;75.06;93854.63;526403;28;824;-41
2023/09/16 01:09:36;;;;;;;5.00;4.50;;;;;;;19.84;75.11;93839.78;526759;28;1236;-41
2023/09/16 01:09:52;;;;;;;5.63;5.03;;;;;;;19.88;75.29;93844.94;528057;28;858;-40
2023/09/16 01:10:10;;;;;;;5.82;5.07;;;;;;;19.76;75.50;93832.94;527944;28;820;-41
2023/09/16 01:10:25;;;;;;;5.10;4.60;;;;;;;19.91;75.73;93852.88;528009;28;1364;-41
2023/09/16 01:10:41;;;;;;;5.80;5.15;;;;;;;19.91;75.72;93854.94;527984;28;1690;-41
2023/09/16 01:10:56;;;;;;;6.17;5.33;;;;;;;19.91;75.83;93850.06;528090;28;828;-41
2023/09/16 01:11:12;;;;;;;5.60;4.70;;;;;;;19.91;75.93;93854.94;528114;28;866;-41
2023/09/16 01:11:27;;;;;;;6.60;4.68;;;;;;;19.90;75.97;93856.28;527814;28;816;-41
2023/09/16 01:11:45;;;;;;;6.33;4.83;;;;;;;19.84;75.99;93850.28;528082;28;922;-41
2023/09/16 01:12:01;;;;;;;6.10;4.95;;;;;;;19.88;76.17;93851.28;528165;28;955;-41
2023/09/16 01:12:16;;;;;;;6.88;5.05;;;;;;;19.87;76.15;93851.88;528143;28;1021;-41
2023/09/16 01:12:31;;;;;;;6.30;4.63;;;;;;;19.81;76.07;93845.88;527609;28;899;-41
2023/09/16 01:12:48;;;;;;;5.33;4.80;;;;;;;19.86;75.86;93853.94;526595;28;1067;-41
2023/09/16 01:13:03;;;;;;;5.55;4.95;;;;;;;19.86;75.84;93850.44;525941;28;825;-41
2023/09/16 01:13:19;;;;;;;6.20;4.72;;;;;;;19.85;75.89;93852.50;527394;28;1159;-41
2023/09/16 01:13:35;;;;;;;6.80;5.03;;;;;;;19.83;75.88;93852.34;528037;28;864;-41
2023/09/16 01:13:51;;;;;;;7.00;5.45;;;;;;;19.82;75.79;93847.34;528035;28;844;-41
2023/09/16 01:14:06;;;;;;;7.27;5.40;;;;;;;19.82;75.98;93847.34;528081;28;832;-41
2023/09/16 01:14:23;;;;;;;7.20;5.13;;;;;;;19.83;76.12;93857.22;527962;28;820;-41
2023/09/16 01:14:39;;;;;;;8.10;5.28;;;;;;;19.83;76.18;93855.16;527966;28;1187;-41
2023/09/16 01:14:54;;;;;;;7.33;5.30;;;;;;;19.83;76.10;93857.97;527327;28;939;-41
2023/09/16 01:15:13;;;;;;;5.78;5.03;;;;;;;19.84;76.23;93850.28;525897;28;856;-41
2023/09/16 01:15:33;;;;;;;5.72;4.72;;;;;;;19.84;76.13;93848.19;527961;28;918;-41
2023/09/16 01:15:54;;;;;;;5.57;4.88;;;;;;;19.86;76.14;93850.44;525924;28;981;-41
2023/09/16 01:16:28;;;;;;;6.40;4.90;;;;;;;19.87;76.25;93851.88;523782;28;1094;-41
2023/09/16 01:17:08;;;;;;;5.78;4.80;;;;;;;19.87;76.32;93847.00;523447;28;1089;-41
2023/09/16 01:17:32;;;;;;;5.72;5.10;;;;;;;19.89;76.36;93852.00;524927;28;1310;-41
2023/09/16 01:17:53;;;;;;;5.20;4.70;;;;;;;19.90;76.65;93847.88;527866;28;1120;-41
2023/09/16 01:18:20;;;;;;;5.15;4.63;;;;;;;19.79;76.26;93828.94;527972;28;1048;-41
2023/09/16 01:18:39;;;;;;;5.20;4.70;;;;;;;19.93;76.26;93850.22;525916;28;1635;-41
2023/09/16 01:19:05;;;;;;;5.75;5.05;;;;;;;19.95;76.27;93844.72;525703;28;1926;-41